Detall de PIREP

Printer-friendly versionPDF version

[2012/12/03 10:38:00]
Flight IATA:CT1005
Pilot Number:011
Company ICAO:CAT
Aircraft Type:A320/E
PAX:85
Departing Airport: LKKV
Destination Airport: LZKZ
Alternate Airport:LZIB
Online: VATSIM
Route:BALTU/N360F240 L984 ELPON Z21 VOZ/N400F250 UL993 LIKSA UT303 BNO UT47 HLV UP27 PPD R232 MARKA
Flight Level:F260
No Slew and time accel
No pause
Crash detect
Detect pilot in Cockpit between each 30 and 45 minutes
10:38 Zero fuel Weight: 59157 Lbs, Fuel Weight: 11457 Lbs
10:38 VATSIM:LKKV 031030Z 26008KT 9999 SCT020 M02/M04 Q1013
10:38 VATSIM:LZKZ 031030Z 35018G30KT 9999 FEW030 SCT060 BKN080 02/M04 Q1005 NOSIG
10:39 Parking Brakes off
10:51 Take-off
10:51 Take off Weight: 70141 Lbs
10:51 Wind: 259º @ 008 Knots Heading: 291º
10:51 POS N50º 12´ 15´´ E012º 54´ 39´´
10:51 Gear Up: 146 Knots
10:51 Flaps:3 at 146 Knots
10:52 Flaps:2 at 155 Knots
10:52 Flaps:1 at 165 Knots
10:52 Flaps:0 at 176 Knots
11:03 TOC
11:03 Fuel Weight: 9319 Lb
11:06 Wind:299º@038 Knots Heading: 102º Ground Speed: 431 Knots Altitude 26000 ft
11:21 Wind:319º@051 Knots Heading: 090º Ground Speed: 397 Knots Altitude 26938 ft
11:36 Wind:086º@011 Knots Heading: 095º Ground Speed: 374 Knots Altitude 26879 ft
11:39 TOD
11:39 Fuel Weight: 6739 Lb
11:51 Wind:347º@033 Knots Heading: 123º Ground Speed: 316 Knots Altitude 11400 ft
11:58 Flaps:1 at 210 Knots
11:59 Flaps:2 at 199 Knots
12:00 Flaps:3 at 175 Knots
12:00 Gear Down: 172 Knots
12:01 Flaps:4 at 161 Knots
12:01 Flaps:5 at 148 Knots
12:03 TouchDown:Rate -321 ft/min Speed: 113 Knots
12:03 VATSIM:LZKZ 031130Z 35013G23KT 330V030 9999 FEW030 SCT060 BKN080 02/M04 Q1005 NOSIG
12:03 Land
12:03 Wind:347º@013 Knots
12:03 Heading: 011º
12:03 Flight Duration: 01:12
12:03 Landing Weight: 64889 Lbs
12:03 POS N48º 39´ 41´´ E021º 14´ 26´´
12:05 Parking brakes on
12:05 Block to Block Duration: 01:26
12:05 Final Fuel: 5652 Lbls
12:05 Spent Fuel: 5804 Lbls
12:05 Flight Length: 196 NM
12:05 TOD Land Length: 80 NM

Exportar CSV

Powered by Drupal - Modified by Danger4k